createdAt,value
2018-12-13T00:00:58.511Z,79.91
2018-12-13T00:03:26.963Z,80.00
2018-12-13T00:05:55.477Z,80.09
2018-12-13T00:08:23.984Z,79.99
2018-12-13T00:10:52.434Z,79.89
2018-12-13T00:13:20.924Z,79.80
2018-12-13T00:15:49.442Z,80.13
2018-12-13T00:18:17.957Z,80.04
2018-12-13T00:20:46.448Z,79.98
2018-12-13T00:23:14.879Z,79.96
2018-12-13T00:25:43.301Z,80.04
2018-12-13T00:28:11.777Z,79.95
2018-12-13T00:30:40.276Z,80.12
2018-12-13T00:33:08.750Z,80.11
2018-12-13T00:35:37.272Z,80.21
2018-12-13T00:38:05.719Z,80.30
2018-12-13T00:40:34.182Z,80.31
2018-12-13T00:43:02.642Z,80.26
2018-12-13T00:45:31.098Z,80.43
2018-12-13T00:47:59.555Z,80.33
2018-12-13T00:50:28.047Z,80.58
2018-12-13T00:52:56.474Z,80.33
2018-12-13T00:55:25.586Z,80.42
2018-12-13T00:57:54.106Z,80.40
2018-12-13T01:00:22.595Z,80.20
2018-12-13T01:02:51.030Z,80.22
2018-12-13T01:05:19.543Z,80.40
2018-12-13T01:07:48.011Z,80.54
2018-12-13T01:10:16.699Z,80.57
2018-12-13T01:12:45.211Z,80.60
2018-12-13T01:15:13.798Z,80.42
2018-12-13T01:17:42.236Z,80.38
2018-12-13T01:20:10.698Z,80.38
2018-12-13T01:22:39.128Z,80.02
2018-12-13T01:25:07.658Z,79.91
2018-12-13T01:27:36.093Z,79.90
2018-12-13T01:30:04.806Z,80.16
2018-12-13T01:32:33.233Z,80.35
2018-12-13T01:35:01.722Z,80.07
2018-12-13T01:37:30.179Z,80.34
2018-12-13T01:39:58.870Z,80.09
2018-12-13T01:42:27.355Z,80.41
2018-12-13T01:44:55.783Z,80.42
2018-12-13T01:47:24.234Z,80.26
2018-12-13T01:49:52.680Z,80.16
2018-12-13T01:54:46.599Z,80.02
2018-12-13T01:57:15.070Z,80.04
2018-12-13T01:59:43.542Z,80.21
2018-12-13T02:02:12.067Z,80.09
2018-12-13T02:04:40.560Z,80.12
2018-12-13T02:07:09.019Z,80.08
2018-12-13T02:09:37.447Z,80.17
2018-12-13T02:12:05.909Z,80.28
2018-12-13T02:14:34.352Z,80.40
2018-12-13T02:17:02.803Z,80.14
2018-12-13T02:19:31.387Z,80.26
2018-12-13T02:21:59.819Z,80.24
2018-12-13T02:24:28.291Z,80.46
2018-12-13T02:26:56.743Z,80.47
2018-12-13T02:29:25.603Z,80.21
2018-12-13T02:31:54.008Z,80.25
2018-12-13T02:34:22.517Z,80.21
2018-12-13T02:36:50.948Z,80.55
2018-12-13T02:39:19.368Z,80.54
2018-12-13T02:41:47.862Z,80.46
2018-12-13T02:44:16.351Z,80.50
2018-12-13T02:46:44.797Z,80.25
2018-12-13T02:49:13.263Z,80.24
2018-12-13T02:51:41.743Z,80.54
2018-12-13T02:54:10.196Z,80.66
2018-12-13T02:56:38.946Z,80.80
2018-12-13T02:59:07.367Z,80.94
2018-12-13T03:01:35.811Z,80.76
2018-12-13T03:04:04.330Z,80.64
2018-12-13T03:06:32.758Z,80.50
2018-12-13T03:09:01.183Z,80.64
2018-12-13T03:11:29.657Z,80.77
2018-12-13T03:13:58.157Z,80.80
2018-12-13T03:16:26.703Z,80.74
2018-12-13T03:18:55.159Z,80.75
2018-12-13T03:21:23.685Z,80.72
2018-12-13T03:23:52.143Z,80.68
2018-12-13T03:26:20.623Z,80.63
2018-12-13T03:28:49.065Z,80.43
2018-12-13T03:31:17.548Z,80.76
2018-12-13T03:33:46.172Z,80.76
2018-12-13T03:36:14.617Z,80.48
2018-12-13T03:38:43.082Z,80.52
2018-12-13T03:41:11.630Z,80.59
2018-12-13T03:43:40.083Z,80.49
2018-12-13T03:46:08.538Z,80.22
2018-12-13T03:48:37.037Z,80.14
2018-12-13T03:51:05.574Z,80.12
2018-12-13T03:53:34.027Z,80.13
2018-12-13T03:56:02.519Z,79.95
2018-12-13T03:58:30.950Z,79.96
2018-12-13T04:00:59.390Z,80.10
2018-12-13T04:03:27.870Z,79.91
2018-12-13T04:05:56.321Z,79.95
2018-12-13T04:08:24.787Z,79.88
2018-12-13T04:10:53.239Z,79.95
2018-12-13T04:13:21.720Z,79.90
2018-12-13T04:15:50.182Z,79.70
2018-12-13T04:18:19.726Z,79.90
2018-12-13T04:20:48.631Z,79.95
2018-12-13T04:23:17.098Z,79.73
2018-12-13T04:25:45.638Z,79.85
2018-12-13T04:28:14.084Z,79.81
2018-12-13T04:30:42.528Z,79.83
2018-12-13T04:33:11.011Z,79.85
2018-12-13T04:35:39.455Z,79.96
2018-12-13T04:38:07.917Z,79.96
2018-12-13T04:40:36.406Z,80.07
2018-12-13T04:43:04.832Z,79.96
2018-12-13T04:45:33.303Z,80.10
2018-12-13T04:48:01.747Z,80.13
2018-12-13T04:50:30.187Z,80.23
2018-12-13T04:52:58.623Z,80.12
2018-12-13T04:55:27.118Z,80.34
2018-12-13T04:57:55.578Z,80.12
2018-12-13T05:00:23.976Z,80.25
2018-12-13T05:02:52.448Z,80.18
2018-12-13T05:05:20.886Z,80.41
2018-12-13T05:07:49.338Z,79.94
2018-12-13T05:13:19.492Z,80.52
2018-12-13T05:15:48.046Z,80.57
2018-12-13T05:18:16.528Z,80.70
2018-12-13T05:20:44.994Z,80.73
2018-12-13T05:23:13.483Z,80.56
2018-12-13T05:25:41.923Z,80.54
2018-12-13T05:28:10.371Z,80.48
2018-12-13T05:30:40.751Z,80.69
2018-12-13T05:33:09.195Z,80.78
2018-12-13T05:35:37.660Z,80.95
2018-12-13T05:38:06.153Z,80.83
2018-12-13T05:40:34.619Z,80.90
2018-12-13T05:43:03.052Z,80.84
2018-12-13T05:45:31.513Z,81.15
2018-12-13T05:47:59.952Z,81.06
2018-12-13T05:50:28.390Z,81.07
2018-12-13T05:52:56.876Z,81.13
2018-12-13T05:55:25.308Z,81.04
2018-12-13T05:57:53.768Z,81.09
2018-12-13T06:00:22.264Z,80.86
2018-12-13T06:02:50.728Z,80.83
2018-12-13T06:05:19.171Z,80.96
2018-12-13T06:07:47.668Z,80.79
2018-12-13T06:10:16.107Z,80.77
2018-12-13T06:12:44.959Z,80.80
2018-12-13T06:15:13.427Z,80.70
2018-12-13T06:17:41.851Z,80.90
2018-12-13T06:20:10.310Z,80.61
2018-12-13T06:22:38.797Z,80.78
2018-12-13T06:25:07.354Z,80.86
2018-12-13T06:27:35.803Z,80.82
2018-12-13T06:30:07.605Z,80.80
2018-12-13T06:32:36.635Z,80.64
2018-12-13T06:35:05.572Z,80.90
2018-12-13T06:37:34.058Z,80.79
2018-12-13T06:40:02.532Z,80.93
2018-12-13T06:42:30.988Z,80.83
2018-12-13T06:44:59.488Z,84.37
2018-12-13T06:47:27.964Z,84.06
2018-12-13T06:49:56.429Z,83.98
2018-12-13T06:52:24.914Z,83.53
2018-12-13T06:54:53.392Z,82.36
2018-12-13T06:57:21.842Z,81.28
2018-12-13T06:59:50.383Z,80.67
2018-12-13T07:02:18.869Z,80.42
2018-12-13T07:04:47.351Z,79.70
2018-12-13T07:07:15.834Z,79.48
2018-12-13T07:09:44.268Z,79.82
2018-12-13T07:12:12.769Z,79.49
2018-12-13T07:14:41.284Z,79.06
2018-12-13T07:17:09.768Z,78.60
2018-12-13T07:19:38.277Z,79.31
2018-12-13T07:22:06.792Z,79.46
2018-12-13T07:24:35.279Z,79.92
2018-12-13T07:27:03.772Z,80.17
2018-12-13T07:29:32.394Z,80.96
2018-12-13T07:32:00.848Z,81.09
2018-12-13T07:34:29.315Z,81.92
2018-12-13T07:36:58.040Z,81.89
2018-12-13T07:39:26.489Z,81.61
2018-12-13T07:41:54.947Z,81.88
2018-12-13T07:44:23.470Z,81.96
2018-12-13T07:46:51.963Z,82.01
2018-12-13T07:49:20.824Z,82.03
2018-12-13T07:51:49.591Z,81.62
2018-12-13T07:54:18.043Z,81.62
2018-12-13T07:56:46.534Z,81.52
2018-12-13T07:59:15.047Z,81.70
2018-12-13T08:01:43.839Z,81.18
2018-12-13T08:04:12.290Z,81.39
2018-12-13T08:06:40.793Z,81.80
2018-12-13T08:09:09.269Z,81.51
2018-12-13T08:11:37.736Z,81.51
2018-12-13T08:14:06.331Z,81.75
2018-12-13T08:16:34.833Z,81.60
2018-12-13T08:19:03.324Z,81.16
2018-12-13T08:21:31.883Z,81.00
2018-12-13T08:24:00.403Z,80.97
2018-12-13T08:26:28.867Z,81.08
2018-12-13T08:28:57.395Z,81.08
2018-12-13T08:31:25.871Z,81.09
2018-12-13T08:33:54.332Z,81.11
2018-12-13T08:36:22.839Z,80.59
2018-12-13T08:38:51.307Z,80.15
2018-12-13T08:41:19.781Z,80.01
2018-12-13T08:43:48.319Z,79.97
2018-12-13T08:46:16.788Z,80.52
2018-12-13T08:48:45.251Z,79.92
2018-12-13T08:51:13.806Z,80.17
2018-12-13T08:53:42.230Z,79.97
2018-12-13T08:56:10.698Z,79.86
2018-12-13T08:58:39.186Z,79.52
2018-12-13T09:01:07.638Z,79.64
2018-12-13T09:03:36.131Z,79.80
2018-12-13T09:06:04.623Z,79.57
2018-12-13T09:08:33.730Z,79.60
2018-12-13T09:11:02.395Z,79.53
2018-12-13T09:13:30.888Z,79.90
2018-12-13T09:15:59.483Z,79.71
2018-12-13T09:18:27.947Z,79.56
2018-12-13T09:20:56.451Z,80.10
2018-12-13T09:23:24.892Z,80.28
2018-12-13T09:25:53.331Z,80.23
2018-12-13T09:28:21.883Z,80.71
2018-12-13T09:30:50.610Z,80.72
2018-12-13T09:33:19.320Z,80.49
2018-12-13T09:35:47.819Z,79.89
2018-12-13T09:38:16.339Z,79.60
2018-12-13T09:40:44.843Z,79.79
2018-12-13T09:43:13.579Z,80.20
2018-12-13T09:45:42.087Z,80.08
2018-12-13T09:48:10.552Z,79.59
2018-12-13T09:50:39.018Z,79.38
2018-12-13T09:53:07.558Z,79.22
2018-12-13T09:55:36.023Z,79.19
2018-12-13T09:58:04.489Z,79.20
2018-12-13T10:00:32.979Z,78.81
2018-12-13T10:03:01.483Z,78.69
2018-12-13T10:05:29.925Z,78.60
2018-12-13T10:07:58.755Z,78.43
2018-12-13T10:10:27.290Z,78.45
2018-12-13T10:12:55.879Z,78.76
2018-12-13T10:15:24.337Z,78.76
2018-12-13T10:17:52.836Z,78.76
2018-12-13T10:20:21.331Z,78.61
2018-12-13T10:22:49.807Z,78.77
2018-12-13T10:25:18.245Z,78.87
2018-12-13T10:27:46.703Z,78.80
2018-12-13T10:30:15.305Z,78.99
2018-12-13T10:32:43.777Z,79.23
2018-12-13T10:35:12.339Z,78.82
2018-12-13T10:37:40.833Z,79.21
2018-12-13T10:40:09.353Z,79.15
2018-12-13T10:42:38.179Z,79.29
2018-12-13T10:45:06.749Z,79.00
2018-12-13T10:47:35.227Z,78.95
2018-12-13T10:50:05.102Z,78.81
2018-12-13T10:52:33.533Z,78.94
2018-12-13T10:55:02.009Z,78.83
2018-12-13T10:57:30.518Z,79.04
2018-12-13T10:59:58.971Z,79.27
2018-12-13T11:02:32.267Z,79.40
2018-12-13T11:05:01.038Z,79.17
2018-12-13T11:07:29.507Z,79.41
2018-12-13T11:09:58.058Z,79.55
2018-12-13T11:12:26.483Z,79.54
2018-12-13T11:14:54.982Z,79.68
2018-12-13T11:17:23.435Z,79.80
2018-12-13T11:19:52.179Z,80.07
2018-12-13T11:22:20.692Z,80.37
2018-12-13T11:24:49.201Z,80.37
2018-12-13T11:27:29.590Z,80.31
2018-12-13T11:33:00.291Z,80.59
2018-12-13T11:35:28.788Z,80.76
2018-12-13T11:37:57.290Z,80.88
2018-12-13T11:40:25.721Z,80.67
2018-12-13T11:42:54.315Z,80.57
2018-12-13T11:45:22.907Z,80.55
2018-12-13T11:47:51.396Z,80.18
2018-12-13T11:50:19.875Z,80.03
2018-12-13T11:52:48.343Z,80.05
2018-12-13T11:55:33.967Z,79.97
2018-12-13T11:58:02.768Z,80.10
2018-12-13T12:00:31.230Z,80.08
2018-12-13T12:02:59.687Z,80.26
2018-12-13T12:05:28.156Z,80.25
2018-12-13T12:07:56.669Z,80.12
2018-12-13T12:10:25.270Z,80.31
2018-12-13T12:12:53.707Z,80.33
2018-12-13T12:15:22.200Z,80.37
2018-12-13T12:17:50.642Z,80.51
2018-12-13T12:20:19.083Z,80.24
2018-12-13T12:22:47.591Z,80.32
2018-12-13T12:25:16.063Z,79.96
2018-12-13T12:27:44.506Z,80.07
2018-12-13T12:30:13.823Z,79.56
2018-12-13T12:32:42.291Z,79.34
2018-12-13T12:35:10.892Z,79.02
2018-12-13T12:37:39.765Z,78.68
2018-12-13T12:40:08.438Z,78.67
2018-12-13T12:42:36.911Z,78.97
2018-12-13T12:45:05.629Z,78.76
2018-12-13T12:47:34.099Z,79.11
2018-12-13T12:50:02.577Z,79.25
2018-12-13T12:52:31.052Z,78.70
2018-12-13T12:54:59.509Z,78.73
2018-12-13T12:57:27.999Z,78.58
2018-12-13T12:59:56.795Z,78.48
2018-12-13T13:02:25.261Z,78.27
2018-12-13T13:04:53.779Z,77.91
2018-12-13T13:07:22.261Z,76.89
2018-12-13T13:09:50.719Z,77.15
2018-12-13T13:12:19.220Z,77.45
2018-12-13T13:14:47.693Z,77.71
2018-12-13T13:17:16.499Z,77.54
2018-12-13T13:19:44.979Z,77.72
2018-12-13T13:22:13.432Z,77.79
2018-12-13T13:24:41.935Z,77.87
2018-12-13T13:27:10.393Z,77.69
2018-12-13T13:29:38.863Z,77.72
2018-12-13T13:32:07.692Z,78.11
2018-12-13T13:34:36.127Z,78.27
2018-12-13T13:37:04.606Z,77.88
2018-12-13T13:39:33.035Z,78.15
2018-12-13T13:42:01.520Z,77.89
2018-12-13T13:44:32.531Z,77.79
2018-12-13T13:47:01.043Z,77.46
2018-12-13T13:49:29.458Z,77.40
2018-12-13T13:51:59.778Z,77.24
2018-12-13T13:54:28.323Z,76.62
2018-12-13T13:56:56.803Z,76.26
2018-12-13T13:59:25.320Z,76.07
2018-12-13T14:01:53.841Z,75.78
2018-12-13T14:04:22.368Z,75.00
2018-12-13T14:06:50.855Z,74.89
2018-12-13T14:09:19.366Z,75.02
2018-12-13T14:11:48.113Z,75.46
2018-12-13T14:14:16.620Z,75.47
2018-12-13T14:16:45.059Z,75.41
2018-12-13T14:19:13.539Z,75.76
2018-12-13T14:21:42.028Z,75.89
2018-12-13T14:24:10.518Z,75.71
2018-12-13T14:26:38.989Z,75.64
2018-12-13T14:29:07.478Z,75.73
2018-12-13T14:31:35.989Z,76.00
2018-12-13T14:34:04.471Z,75.89
2018-12-13T14:36:32.920Z,75.80
2018-12-13T14:39:01.413Z,75.85
2018-12-13T14:41:29.875Z,75.88
2018-12-13T14:43:59.405Z,76.05
2018-12-13T14:46:27.871Z,76.09
2018-12-13T14:48:56.363Z,76.05
2018-12-13T14:51:24.845Z,76.17
2018-12-13T14:53:53.313Z,76.05
2018-12-13T14:56:21.787Z,76.50
2018-12-13T14:58:50.293Z,76.12
2018-12-13T15:01:18.703Z,76.16
2018-12-13T15:03:47.203Z,76.19
2018-12-13T15:06:15.725Z,76.16
2018-12-13T15:08:44.182Z,76.35
2018-12-13T15:11:12.729Z,76.49
2018-12-13T15:13:41.660Z,78.76
2018-12-13T15:16:10.203Z,79.75
2018-12-13T15:18:38.697Z,78.84
2018-12-13T15:21:07.152Z,77.99
2018-12-13T15:23:35.658Z,76.74
2018-12-13T15:26:04.121Z,76.27
2018-12-13T15:28:32.577Z,75.48
2018-12-13T15:31:01.096Z,75.20
2018-12-13T15:33:29.535Z,75.00
2018-12-13T15:35:58.003Z,74.77
2018-12-13T15:38:26.445Z,74.74
2018-12-13T15:40:54.904Z,74.64
2018-12-13T15:43:23.489Z,74.63
2018-12-13T15:45:51.950Z,73.97
2018-12-13T15:48:20.423Z,74.54
2018-12-13T15:50:48.921Z,74.69
2018-12-13T15:53:17.415Z,74.85
2018-12-13T15:55:45.884Z,75.13
2018-12-13T15:58:14.413Z,75.01
2018-12-13T16:00:42.894Z,75.47
2018-12-13T16:03:11.342Z,75.62
2018-12-13T16:05:39.860Z,75.78
2018-12-13T16:08:08.344Z,75.69
2018-12-13T16:10:36.794Z,75.44
2018-12-13T16:13:05.311Z,75.37
2018-12-13T16:15:33.776Z,79.96
2018-12-13T16:18:02.471Z,77.74
2018-12-13T16:20:32.001Z,75.12
2018-12-13T16:23:00.466Z,75.15
2018-12-13T16:25:28.944Z,75.26
2018-12-13T16:27:57.435Z,75.48
2018-12-13T16:30:26.130Z,75.41
2018-12-13T16:32:54.598Z,75.42
2018-12-13T16:35:23.120Z,75.19
2018-12-13T16:37:51.935Z,75.18
2018-12-13T16:40:20.474Z,75.10
2018-12-13T16:42:49.044Z,74.93
2018-12-13T16:45:17.585Z,75.43
2018-12-13T16:47:46.141Z,75.40
2018-12-13T16:50:14.747Z,75.31
2018-12-13T16:52:43.219Z,75.31
2018-12-13T16:55:11.744Z,75.07
2018-12-13T16:57:40.284Z,74.89
2018-12-13T17:00:09.773Z,74.33
2018-12-13T17:02:38.278Z,74.06
2018-12-13T17:05:06.885Z,74.27
2018-12-13T17:07:35.382Z,74.46
2018-12-13T17:10:04.519Z,74.29
2018-12-13T17:12:33.077Z,75.74
2018-12-13T17:15:01.706Z,74.61
2018-12-13T17:17:30.288Z,74.18
2018-12-13T17:19:59.268Z,74.12
2018-12-13T17:22:27.855Z,73.72
2018-12-13T17:24:56.435Z,73.81
2018-12-13T17:27:24.937Z,73.78
2018-12-13T17:29:53.462Z,73.80
2018-12-13T17:32:21.930Z,73.82
2018-12-13T17:34:50.513Z,74.02
2018-12-13T17:37:19.016Z,73.95
2018-12-13T17:39:47.505Z,73.68
2018-12-13T17:42:16.084Z,73.99
2018-12-13T17:44:44.590Z,74.08
2018-12-13T17:47:13.119Z,74.03
2018-12-13T17:49:41.953Z,73.94
2018-12-13T17:52:10.489Z,73.92
2018-12-13T17:54:39.052Z,74.05
2018-12-13T17:57:07.607Z,73.99
2018-12-13T17:59:36.155Z,74.09
2018-12-13T18:02:04.971Z,74.16
2018-12-13T18:04:33.524Z,74.49
2018-12-13T18:07:02.103Z,74.62
2018-12-13T18:09:30.628Z,74.41
2018-12-13T18:11:59.171Z,74.33
2018-12-13T18:14:27.768Z,74.46
2018-12-13T18:16:56.387Z,74.62
2018-12-13T18:19:25.363Z,74.72
2018-12-13T18:21:53.907Z,75.04
2018-12-13T18:24:22.460Z,77.53
2018-12-13T18:26:51.132Z,77.53
2018-12-13T18:29:19.706Z,75.44
2018-12-13T18:31:48.335Z,75.05
2018-12-13T18:34:16.947Z,74.95
2018-12-13T18:36:45.528Z,74.99
2018-12-13T18:39:14.272Z,75.13
2018-12-13T18:41:42.843Z,75.32
2018-12-13T18:44:11.344Z,75.17
2018-12-13T18:46:39.967Z,75.30
2018-12-13T18:49:08.572Z,75.16
2018-12-13T18:51:37.203Z,75.16
2018-12-13T18:54:05.727Z,75.21
2018-12-13T18:56:34.370Z,75.18
2018-12-13T18:59:03.350Z,75.10
2018-12-13T19:01:31.912Z,75.34
2018-12-13T19:04:00.471Z,75.26
2018-12-13T19:06:29.100Z,75.38
2018-12-13T19:08:57.720Z,75.44
2018-12-13T19:11:27.353Z,75.60
2018-12-13T19:13:55.938Z,75.81
2018-12-13T19:16:25.420Z,76.16
2018-12-13T19:18:54.519Z,76.49
2018-12-13T19:21:23.121Z,76.70
2018-12-13T19:23:53.160Z,76.72
2018-12-13T19:26:21.745Z,76.93
2018-12-13T19:28:50.361Z,77.52
2018-12-13T19:33:52.783Z,78.66
2018-12-13T19:36:21.896Z,78.48
2018-12-13T19:38:51.283Z,78.92
2018-12-13T19:41:20.315Z,78.85
2018-12-13T19:43:48.971Z,79.25
2018-12-13T19:46:19.266Z,85.15
2018-12-13T19:48:48.189Z,79.84
2018-12-13T19:51:17.141Z,78.59
2018-12-13T19:53:45.691Z,77.81
2018-12-13T19:56:15.803Z,77.40
2018-12-13T19:58:44.432Z,77.56
2018-12-13T20:01:13.050Z,77.95
2018-12-13T20:03:42.207Z,77.81
2018-12-13T20:06:11.052Z,77.99
2018-12-13T20:08:40.615Z,78.15
2018-12-13T20:11:09.231Z,78.17
2018-12-13T20:13:37.861Z,78.21
2018-12-13T20:16:06.456Z,78.28
2018-12-13T20:18:35.047Z,77.91
2018-12-13T20:21:05.005Z,77.88
2018-12-13T20:23:35.999Z,78.00
2018-12-13T20:26:05.057Z,78.29
2018-12-13T20:28:33.690Z,78.05
2018-12-13T20:31:02.891Z,76.84
2018-12-13T20:33:31.554Z,76.05
2018-12-13T20:36:00.155Z,75.76
2018-12-13T20:38:28.766Z,75.71
2018-12-13T20:41:00.972Z,74.13
2018-12-13T20:43:27.983Z,73.65
2018-12-13T20:45:56.631Z,73.56
2018-12-13T20:48:26.270Z,73.58
2018-12-13T20:50:54.889Z,73.42
2018-12-13T20:53:25.090Z,73.65
2018-12-13T20:55:53.827Z,73.48
2018-12-13T20:58:22.522Z,73.78
2018-12-13T21:00:51.958Z,73.65
2018-12-13T21:03:20.538Z,73.45
2018-12-13T21:05:49.163Z,73.18
2018-12-13T21:08:18.399Z,73.54
2018-12-13T21:10:47.001Z,73.02
2018-12-13T21:13:15.607Z,73.01
2018-12-13T21:15:44.272Z,73.30
2018-12-13T21:18:13.120Z,73.11
2018-12-13T21:20:41.755Z,73.03
2018-12-13T21:23:10.329Z,73.03
2018-12-13T21:25:38.969Z,72.70
2018-12-13T21:28:07.539Z,72.95
2018-12-13T21:30:36.452Z,72.71
2018-12-13T21:33:05.052Z,72.89
2018-12-13T21:35:33.664Z,72.83
2018-12-13T21:38:02.249Z,73.10
2018-12-13T21:40:30.827Z,73.06
2018-12-13T21:42:59.384Z,73.10
2018-12-13T21:45:27.977Z,73.07
2018-12-13T21:47:56.620Z,72.53
2018-12-13T21:50:25.118Z,72.75
2018-12-13T21:52:53.602Z,72.78
2018-12-13T21:55:22.129Z,73.00
2018-12-13T21:57:50.645Z,73.52
2018-12-13T22:00:19.115Z,73.91
2018-12-13T22:02:47.563Z,74.51
2018-12-13T22:05:16.033Z,75.08
2018-12-13T22:07:44.891Z,74.86
2018-12-13T22:10:13.344Z,74.70
2018-12-13T22:12:41.930Z,75.42
2018-12-13T22:15:11.307Z,75.31
2018-12-13T22:17:39.802Z,76.04
2018-12-13T22:20:08.269Z,76.01
2018-12-13T22:22:36.779Z,75.62
2018-12-13T22:25:07.090Z,75.65
2018-12-13T22:27:35.598Z,75.96
2018-12-13T22:30:04.979Z,76.15
2018-12-13T22:32:33.419Z,76.56
2018-12-13T22:35:01.906Z,76.70
2018-12-13T22:37:30.394Z,76.61
2018-12-13T22:39:58.922Z,76.33
2018-12-13T22:42:27.395Z,76.37
2018-12-13T22:44:55.836Z,76.33
2018-12-13T22:47:24.711Z,76.33
2018-12-13T22:49:53.215Z,76.45
2018-12-13T22:52:21.654Z,76.65
2018-12-13T22:54:50.170Z,75.84
2018-12-13T22:57:18.906Z,76.30
2018-12-13T22:59:48.108Z,77.05
2018-12-13T23:02:16.582Z,77.43
2018-12-13T23:04:45.153Z,77.20
2018-12-13T23:07:13.950Z,76.01
2018-12-13T23:09:44.162Z,75.57
2018-12-13T23:12:13.322Z,75.74
2018-12-13T23:14:44.763Z,75.88
2018-12-13T23:17:13.263Z,75.54
2018-12-13T23:19:41.703Z,76.27
2018-12-13T23:22:10.186Z,76.20
2018-12-13T23:24:38.677Z,75.56
2018-12-13T23:27:07.212Z,75.74
2018-12-13T23:29:35.707Z,75.61
2018-12-13T23:32:04.618Z,75.91
2018-12-13T23:34:33.017Z,75.95
2018-12-13T23:37:01.477Z,75.90
2018-12-13T23:39:35.345Z,76.01
2018-12-13T23:42:03.803Z,76.24
2018-12-13T23:44:32.229Z,76.58
2018-12-13T23:47:00.905Z,75.46
2018-12-13T23:49:29.402Z,76.20
2018-12-13T23:51:58.329Z,73.50
2018-12-13T23:54:26.825Z,73.72
2018-12-13T23:56:55.283Z,73.87
2018-12-13T23:59:23.741Z,74.55
